sensor_id;sensor_type;location;lat;lon;timestamp;P1;durP1;ratioP1;P2;durP2;ratioP2
23988;SDS011;12202;52.136;5.592;2023-03-20T00:00:18;48.05;;;18.15;;
23988;SDS011;12202;52.136;5.592;2023-03-20T00:02:45;51.22;;;17.60;;
23988;SDS011;12202;52.136;5.592;2023-03-20T00:05:15;47.97;;;18.23;;
23988;SDS011;12202;52.136;5.592;2023-03-20T00:07:43;49.05;;;18.90;;
23988;SDS011;12202;52.136;5.592;2023-03-20T00:10:09;54.55;;;20.50;;
23988;SDS011;12202;52.136;5.592;2023-03-20T00:12:35;38.08;;;17.15;;
23988;SDS011;12202;52.136;5.592;2023-03-20T00:15:02;43.13;;;18.27;;
23988;SDS011;12202;52.136;5.592;2023-03-20T00:17:29;53.47;;;20.25;;
23988;SDS011;12202;52.136;5.592;2023-03-20T00:19:55;50.83;;;17.90;;
23988;SDS011;12202;52.136;5.592;2023-03-20T00:22:21;47.95;;;17.25;;
23988;SDS011;12202;52.136;5.592;2023-03-20T00:24:47;49.83;;;18.05;;
23988;SDS011;12202;52.136;5.592;2023-03-20T00:27:14;43.20;;;17.88;;
23988;SDS011;12202;52.136;5.592;2023-03-20T00:29:40;39.80;;;18.30;;
23988;SDS011;12202;52.136;5.592;2023-03-20T00:32:12;37.15;;;17.75;;
23988;SDS011;12202;52.136;5.592;2023-03-20T00:34:39;41.22;;;17.08;;
23988;SDS011;12202;52.136;5.592;2023-03-20T00:37:05;43.80;;;19.25;;
23988;SDS011;12202;52.136;5.592;2023-03-20T00:39:31;48.80;;;19.23;;
23988;SDS011;12202;52.136;5.592;2023-03-20T00:42:01;38.85;;;18.55;;
23988;SDS011;12202;52.136;5.592;2023-03-20T00:44:36;55.25;;;19.88;;
23988;SDS011;12202;52.136;5.592;2023-03-20T00:47:03;47.05;;;19.45;;
23988;SDS011;12202;52.136;5.592;2023-03-20T00:49:30;41.90;;;18.88;;
23988;SDS011;12202;52.136;5.592;2023-03-20T00:51:57;53.33;;;21.27;;
23988;SDS011;12202;52.136;5.592;2023-03-20T00:54:23;45.95;;;20.92;;
23988;SDS011;12202;52.136;5.592;2023-03-20T00:56:54;45.30;;;21.08;;
23988;SDS011;12202;52.136;5.592;2023-03-20T00:59:23;55.33;;;21.23;;
23988;SDS011;12202;52.136;5.592;2023-03-20T01:01:50;62.53;;;23.35;;
23988;SDS011;12202;52.136;5.592;2023-03-20T01:04:17;64.03;;;25.25;;
23988;SDS011;12202;52.136;5.592;2023-03-20T01:06:44;62.28;;;25.27;;
23988;SDS011;12202;52.136;5.592;2023-03-20T01:09:10;54.72;;;25.92;;
23988;SDS011;12202;52.136;5.592;2023-03-20T01:11:37;58.30;;;24.88;;
23988;SDS011;12202;52.136;5.592;2023-03-20T01:14:04;58.95;;;26.08;;
23988;SDS011;12202;52.136;5.592;2023-03-20T01:16:30;60.72;;;27.00;;
23988;SDS011;12202;52.136;5.592;2023-03-20T01:18:57;74.28;;;29.20;;
23988;SDS011;12202;52.136;5.592;2023-03-20T01:21:23;53.60;;;24.20;;
23988;SDS011;12202;52.136;5.592;2023-03-20T01:23:49;59.13;;;24.80;;
23988;SDS011;12202;52.136;5.592;2023-03-20T01:26:35;56.15;;;25.13;;
23988;SDS011;12202;52.136;5.592;2023-03-20T01:29:02;63.63;;;24.70;;
23988;SDS011;12202;52.136;5.592;2023-03-20T01:31:28;53.53;;;22.88;;
23988;SDS011;12202;52.136;5.592;2023-03-20T01:33:54;52.30;;;24.83;;
23988;SDS011;12202;52.136;5.592;2023-03-20T01:36:21;56.30;;;25.42;;
23988;SDS011;12202;52.136;5.592;2023-03-20T01:38:55;55.88;;;23.45;;
23988;SDS011;12202;52.136;5.592;2023-03-20T01:41:22;63.75;;;22.38;;
23988;SDS011;12202;52.136;5.592;2023-03-20T01:43:48;50.35;;;21.85;;
23988;SDS011;12202;52.136;5.592;2023-03-20T01:51:19;49.78;;;19.92;;
23988;SDS011;12202;52.136;5.592;2023-03-20T01:53:47;46.47;;;20.02;;
23988;SDS011;12202;52.136;5.592;2023-03-20T01:56:14;40.05;;;18.17;;
23988;SDS011;12202;52.136;5.592;2023-03-20T01:58:44;42.85;;;19.48;;
23988;SDS011;12202;52.136;5.592;2023-03-20T02:01:11;42.78;;;18.63;;
23988;SDS011;12202;52.136;5.592;2023-03-20T02:03:38;39.88;;;16.50;;
23988;SDS011;12202;52.136;5.592;2023-03-20T02:06:07;38.67;;;16.35;;
23988;SDS011;12202;52.136;5.592;2023-03-20T02:08:53;32.35;;;15.52;;
23988;SDS011;12202;52.136;5.592;2023-03-20T02:11:31;35.63;;;15.70;;
23988;SDS011;12202;52.136;5.592;2023-03-20T02:13:58;44.25;;;17.25;;
23988;SDS011;12202;52.136;5.592;2023-03-20T02:16:25;37.30;;;15.60;;
23988;SDS011;12202;52.136;5.592;2023-03-20T02:18:51;34.20;;;15.93;;
23988;SDS011;12202;52.136;5.592;2023-03-20T02:26:55;33.42;;;15.40;;
23988;SDS011;12202;52.136;5.592;2023-03-20T02:29:42;33.60;;;13.75;;
23988;SDS011;12202;52.136;5.592;2023-03-20T02:40:22;30.95;;;13.10;;
23988;SDS011;12202;52.136;5.592;2023-03-20T02:45:28;35.20;;;12.57;;
23988;SDS011;12202;52.136;5.592;2023-03-20T02:50:46;23.60;;;11.65;;
23988;SDS011;12202;52.136;5.592;2023-03-20T02:53:30;27.63;;;11.98;;
23988;SDS011;12202;52.136;5.592;2023-03-20T02:58:50;28.23;;;12.25;;
23988;SDS011;12202;52.136;5.592;2023-03-20T03:01:25;31.80;;;12.63;;
23988;SDS011;12202;52.136;5.592;2023-03-20T03:04:03;35.15;;;13.25;;
23988;SDS011;12202;52.136;5.592;2023-03-20T03:06:30;33.13;;;13.60;;
23988;SDS011;12202;52.136;5.592;2023-03-20T03:09:01;31.15;;;13.07;;
23988;SDS011;12202;52.136;5.592;2023-03-20T03:11:29;45.13;;;13.40;;
23988;SDS011;12202;52.136;5.592;2023-03-20T03:13:55;32.13;;;13.55;;
23988;SDS011;12202;52.136;5.592;2023-03-20T03:16:29;33.97;;;13.45;;
23988;SDS011;12202;52.136;5.592;2023-03-20T03:19:13;32.97;;;14.68;;
23988;SDS011;12202;52.136;5.592;2023-03-20T03:21:39;37.53;;;14.55;;
23988;SDS011;12202;52.136;5.592;2023-03-20T03:26:54;40.90;;;16.52;;
23988;SDS011;12202;52.136;5.592;2023-03-20T03:29:21;41.65;;;16.65;;
23988;SDS011;12202;52.136;5.592;2023-03-20T03:31:48;43.85;;;17.20;;
23988;SDS011;12202;52.136;5.592;2023-03-20T03:34:15;47.92;;;19.17;;
23988;SDS011;12202;52.136;5.592;2023-03-20T03:42:09;47.67;;;20.92;;
23988;SDS011;12202;52.136;5.592;2023-03-20T03:44:40;53.85;;;22.45;;
23988;SDS011;12202;52.136;5.592;2023-03-20T03:47:13;57.85;;;21.80;;
23988;SDS011;12202;52.136;5.592;2023-03-20T03:49:45;52.75;;;21.40;;
23988;SDS011;12202;52.136;5.592;2023-03-20T03:52:18;59.85;;;22.58;;
23988;SDS011;12202;52.136;5.592;2023-03-20T03:54:50;55.58;;;20.30;;
23988;SDS011;12202;52.136;5.592;2023-03-20T03:57:19;48.90;;;20.23;;
23988;SDS011;12202;52.136;5.592;2023-03-20T03:59:47;58.53;;;21.40;;
23988;SDS011;12202;52.136;5.592;2023-03-20T04:02:15;63.25;;;21.00;;
23988;SDS011;12202;52.136;5.592;2023-03-20T04:04:44;58.22;;;20.58;;
23988;SDS011;12202;52.136;5.592;2023-03-20T04:07:12;54.10;;;20.80;;
23988;SDS011;12202;52.136;5.592;2023-03-20T04:09:38;50.00;;;18.83;;
23988;SDS011;12202;52.136;5.592;2023-03-20T04:12:04;59.45;;;20.33;;
23988;SDS011;12202;52.136;5.592;2023-03-20T04:14:30;47.17;;;18.80;;
23988;SDS011;12202;52.136;5.592;2023-03-20T04:16:56;57.70;;;19.73;;
23988;SDS011;12202;52.136;5.592;2023-03-20T04:19:22;53.40;;;20.10;;
23988;SDS011;12202;52.136;5.592;2023-03-20T04:21:48;54.08;;;20.33;;
23988;SDS011;12202;52.136;5.592;2023-03-20T04:24:14;57.78;;;21.23;;
23988;SDS011;12202;52.136;5.592;2023-03-20T04:26:40;54.08;;;21.73;;
23988;SDS011;12202;52.136;5.592;2023-03-20T04:29:07;52.22;;;19.95;;
23988;SDS011;12202;52.136;5.592;2023-03-20T04:31:33;56.40;;;20.75;;
23988;SDS011;12202;52.136;5.592;2023-03-20T04:33:59;51.05;;;21.77;;
23988;SDS011;12202;52.136;5.592;2023-03-20T04:36:25;67.93;;;23.85;;
23988;SDS011;12202;52.136;5.592;2023-03-20T04:38:51;60.20;;;23.58;;
23988;SDS011;12202;52.136;5.592;2023-03-20T04:41:17;52.70;;;22.52;;
23988;SDS011;12202;52.136;5.592;2023-03-20T04:43:45;61.28;;;23.83;;
23988;SDS011;12202;52.136;5.592;2023-03-20T04:46:11;65.05;;;25.02;;
23988;SDS011;12202;52.136;5.592;2023-03-20T04:48:37;51.22;;;25.13;;
23988;SDS011;12202;52.136;5.592;2023-03-20T04:51:03;61.20;;;26.98;;
23988;SDS011;12202;52.136;5.592;2023-03-20T04:53:29;63.15;;;27.92;;
23988;SDS011;12202;52.136;5.592;2023-03-20T04:55:55;64.22;;;27.17;;
23988;SDS011;12202;52.136;5.592;2023-03-20T04:58:21;62.88;;;27.77;;
23988;SDS011;12202;52.136;5.592;2023-03-20T05:00:47;71.18;;;28.50;;
23988;SDS011;12202;52.136;5.592;2023-03-20T05:03:13;64.10;;;27.15;;
23988;SDS011;12202;52.136;5.592;2023-03-20T05:05:39;67.75;;;29.38;;
23988;SDS011;12202;52.136;5.592;2023-03-20T05:08:05;66.50;;;27.38;;
23988;SDS011;12202;52.136;5.592;2023-03-20T05:10:31;70.40;;;28.65;;
23988;SDS011;12202;52.136;5.592;2023-03-20T05:12:57;59.85;;;27.38;;
23988;SDS011;12202;52.136;5.592;2023-03-20T05:15:23;61.72;;;28.42;;
23988;SDS011;12202;52.136;5.592;2023-03-20T05:17:49;67.00;;;29.20;;
23988;SDS011;12202;52.136;5.592;2023-03-20T05:20:15;68.78;;;29.95;;
23988;SDS011;12202;52.136;5.592;2023-03-20T05:22:41;72.20;;;29.42;;
23988;SDS011;12202;52.136;5.592;2023-03-20T05:25:07;66.57;;;31.88;;
23988;SDS011;12202;52.136;5.592;2023-03-20T05:27:33;59.60;;;29.00;;
23988;SDS011;12202;52.136;5.592;2023-03-20T05:29:59;71.95;;;32.33;;
23988;SDS011;12202;52.136;5.592;2023-03-20T05:32:25;62.90;;;29.60;;
23988;SDS011;12202;52.136;5.592;2023-03-20T05:34:51;75.82;;;32.20;;
23988;SDS011;12202;52.136;5.592;2023-03-20T05:37:17;62.08;;;31.48;;
23988;SDS011;12202;52.136;5.592;2023-03-20T05:39:43;67.30;;;30.48;;
23988;SDS011;12202;52.136;5.592;2023-03-20T05:42:09;89.32;;;33.05;;
23988;SDS011;12202;52.136;5.592;2023-03-20T05:44:35;81.93;;;31.35;;
23988;SDS011;12202;52.136;5.592;2023-03-20T05:47:01;69.43;;;30.60;;
23988;SDS011;12202;52.136;5.592;2023-03-20T05:49:27;68.10;;;30.60;;
23988;SDS011;12202;52.136;5.592;2023-03-20T05:51:53;63.22;;;28.52;;
23988;SDS011;12202;52.136;5.592;2023-03-20T05:54:19;73.43;;;31.80;;
23988;SDS011;12202;52.136;5.592;2023-03-20T05:56:45;57.97;;;28.95;;
23988;SDS011;12202;52.136;5.592;2023-03-20T05:59:11;66.95;;;30.95;;
23988;SDS011;12202;52.136;5.592;2023-03-20T06:01:37;63.00;;;29.35;;
23988;SDS011;12202;52.136;5.592;2023-03-20T06:04:03;61.08;;;27.75;;
23988;SDS011;12202;52.136;5.592;2023-03-20T06:06:29;65.50;;;27.73;;
23988;SDS011;12202;52.136;5.592;2023-03-20T06:08:55;61.38;;;28.70;;
23988;SDS011;12202;52.136;5.592;2023-03-20T06:11:21;55.65;;;27.08;;
23988;SDS011;12202;52.136;5.592;2023-03-20T06:13:47;54.08;;;28.05;;
23988;SDS011;12202;52.136;5.592;2023-03-20T06:16:15;57.00;;;28.05;;
23988;SDS011;12202;52.136;5.592;2023-03-20T06:18:41;56.80;;;27.50;;
23988;SDS011;12202;52.136;5.592;2023-03-20T06:21:07;62.90;;;27.30;;
23988;SDS011;12202;52.136;5.592;2023-03-20T06:23:33;57.00;;;26.95;;
23988;SDS011;12202;52.136;5.592;2023-03-20T06:26:00;68.93;;;28.73;;
23988;SDS011;12202;52.136;5.592;2023-03-20T06:28:26;59.40;;;27.27;;
23988;SDS011;12202;52.136;5.592;2023-03-20T06:30:52;66.05;;;29.05;;
23988;SDS011;12202;52.136;5.592;2023-03-20T06:33:18;58.53;;;27.30;;
23988;SDS011;12202;52.136;5.592;2023-03-20T06:35:44;59.60;;;28.10;;
23988;SDS011;12202;52.136;5.592;2023-03-20T06:38:13;57.10;;;27.05;;
23988;SDS011;12202;52.136;5.592;2023-03-20T06:40:39;54.90;;;27.05;;
23988;SDS011;12202;52.136;5.592;2023-03-20T06:43:05;63.10;;;28.30;;
23988;SDS011;12202;52.136;5.592;2023-03-20T06:45:31;60.75;;;27.05;;
23988;SDS011;12202;52.136;5.592;2023-03-20T06:47:57;56.70;;;25.60;;
23988;SDS011;12202;52.136;5.592;2023-03-20T06:50:23;65.55;;;26.58;;
23988;SDS011;12202;52.136;5.592;2023-03-20T06:52:50;63.67;;;25.45;;
23988;SDS011;12202;52.136;5.592;2023-03-20T06:55:16;67.28;;;26.70;;
23988;SDS011;12202;52.136;5.592;2023-03-20T06:57:42;57.15;;;25.42;;
23988;SDS011;12202;52.136;5.592;2023-03-20T07:00:08;52.20;;;25.35;;
23988;SDS011;12202;52.136;5.592;2023-03-20T07:02:34;54.72;;;25.75;;
23988;SDS011;12202;52.136;5.592;2023-03-20T07:05:01;57.03;;;25.25;;
23988;SDS011;12202;52.136;5.592;2023-03-20T07:07:27;53.88;;;25.67;;
23988;SDS011;12202;52.136;5.592;2023-03-20T07:09:53;52.67;;;23.42;;
23988;SDS011;12202;52.136;5.592;2023-03-20T07:12:19;49.70;;;23.05;;
23988;SDS011;12202;52.136;5.592;2023-03-20T07:14:46;53.80;;;24.73;;
23988;SDS011;12202;52.136;5.592;2023-03-20T07:17:12;55.00;;;24.25;;
23988;SDS011;12202;52.136;5.592;2023-03-20T07:19:38;48.17;;;22.50;;
23988;SDS011;12202;52.136;5.592;2023-03-20T07:22:05;53.10;;;24.33;;
23988;SDS011;12202;52.136;5.592;2023-03-20T07:24:32;56.72;;;24.42;;
23988;SDS011;12202;52.136;5.592;2023-03-20T07:26:58;50.95;;;23.58;;
23988;SDS011;12202;52.136;5.592;2023-03-20T07:29:25;70.05;;;24.80;;
23988;SDS011;12202;52.136;5.592;2023-03-20T07:31:51;46.38;;;23.42;;
23988;SDS011;12202;52.136;5.592;2023-03-20T07:34:17;52.72;;;22.80;;
23988;SDS011;12202;52.136;5.592;2023-03-20T07:36:43;43.65;;;21.65;;
23988;SDS011;12202;52.136;5.592;2023-03-20T07:39:10;51.42;;;22.52;;
23988;SDS011;12202;52.136;5.592;2023-03-20T07:41:36;54.20;;;21.20;;
23988;SDS011;12202;52.136;5.592;2023-03-20T07:44:02;47.63;;;20.85;;
23988;SDS011;12202;52.136;5.592;2023-03-20T07:46:28;47.75;;;21.75;;
23988;SDS011;12202;52.136;5.592;2023-03-20T07:48:54;54.38;;;22.42;;
23988;SDS011;12202;52.136;5.592;2023-03-20T07:51:22;43.17;;;20.48;;
23988;SDS011;12202;52.136;5.592;2023-03-20T07:53:48;40.38;;;20.70;;
23988;SDS011;12202;52.136;5.592;2023-03-20T07:56:14;46.92;;;21.15;;
23988;SDS011;12202;52.136;5.592;2023-03-20T07:58:40;45.70;;;21.02;;
23988;SDS011;12202;52.136;5.592;2023-03-20T08:01:06;46.22;;;20.27;;
23988;SDS011;12202;52.136;5.592;2023-03-20T08:03:32;57.03;;;22.48;;
23988;SDS011;12202;52.136;5.592;2023-03-20T08:05:58;48.00;;;19.67;;
23988;SDS011;12202;52.136;5.592;2023-03-20T08:08:24;41.83;;;19.42;;
23988;SDS011;12202;52.136;5.592;2023-03-20T08:10:50;43.42;;;18.75;;
23988;SDS011;12202;52.136;5.592;2023-03-20T08:13:16;41.40;;;19.10;;
23988;SDS011;12202;52.136;5.592;2023-03-20T08:15:43;40.17;;;18.95;;
23988;SDS011;12202;52.136;5.592;2023-03-20T08:18:11;44.47;;;18.77;;
23988;SDS011;12202;52.136;5.592;2023-03-20T08:20:36;44.35;;;17.55;;
23988;SDS011;12202;52.136;5.592;2023-03-20T08:23:02;40.17;;;17.90;;
23988;SDS011;12202;52.136;5.592;2023-03-20T08:25:28;44.63;;;18.13;;
23988;SDS011;12202;52.136;5.592;2023-03-20T08:27:58;41.80;;;18.85;;
23988;SDS011;12202;52.136;5.592;2023-03-20T08:30:25;50.42;;;19.10;;
23988;SDS011;12202;52.136;5.592;2023-03-20T08:32:51;53.17;;;19.17;;
23988;SDS011;12202;52.136;5.592;2023-03-20T08:35:17;40.90;;;16.45;;
23988;SDS011;12202;52.136;5.592;2023-03-20T08:37:43;38.78;;;17.75;;
23988;SDS011;12202;52.136;5.592;2023-03-20T08:40:09;51.70;;;18.42;;
23988;SDS011;12202;52.136;5.592;2023-03-20T08:42:35;34.03;;;15.73;;
23988;SDS011;12202;52.136;5.592;2023-03-20T08:45:01;49.22;;;18.77;;
23988;SDS011;12202;52.136;5.592;2023-03-20T08:47:27;38.28;;;18.27;;
23988;SDS011;12202;52.136;5.592;2023-03-20T08:49:53;41.00;;;17.08;;
23988;SDS011;12202;52.136;5.592;2023-03-20T08:52:19;37.63;;;17.33;;
23988;SDS011;12202;52.136;5.592;2023-03-20T08:54:47;34.67;;;15.23;;
23988;SDS011;12202;52.136;5.592;2023-03-20T08:57:12;39.25;;;14.52;;
23988;SDS011;12202;52.136;5.592;2023-03-20T08:59:38;34.22;;;14.35;;
23988;SDS011;12202;52.136;5.592;2023-03-20T09:02:05;36.25;;;14.35;;
23988;SDS011;12202;52.136;5.592;2023-03-20T09:04:31;37.47;;;14.90;;
23988;SDS011;12202;52.136;5.592;2023-03-20T09:06:57;31.10;;;13.73;;
23988;SDS011;12202;52.136;5.592;2023-03-20T09:09:25;36.45;;;14.50;;
23988;SDS011;12202;52.136;5.592;2023-03-20T09:11:53;42.25;;;16.13;;
23988;SDS011;12202;52.136;5.592;2023-03-20T09:14:19;35.65;;;13.80;;
23988;SDS011;12202;52.136;5.592;2023-03-20T09:16:45;38.85;;;15.10;;
23988;SDS011;12202;52.136;5.592;2023-03-20T09:19:11;39.70;;;13.57;;
23988;SDS011;12202;52.136;5.592;2023-03-20T09:21:37;37.20;;;13.07;;
23988;SDS011;12202;52.136;5.592;2023-03-20T09:24:03;35.80;;;13.85;;
23988;SDS011;12202;52.136;5.592;2023-03-20T09:26:29;31.80;;;13.52;;
23988;SDS011;12202;52.136;5.592;2023-03-20T09:28:55;36.05;;;13.95;;
23988;SDS011;12202;52.136;5.592;2023-03-20T09:31:21;23.35;;;11.00;;
23988;SDS011;12202;52.136;5.592;2023-03-20T09:33:48;32.17;;;12.95;;
23988;SDS011;12202;52.136;5.592;2023-03-20T09:36:14;39.88;;;13.30;;
23988;SDS011;12202;52.136;5.592;2023-03-20T09:38:40;32.47;;;12.63;;
23988;SDS011;12202;52.136;5.592;2023-03-20T09:41:06;30.30;;;12.75;;
23988;SDS011;12202;52.136;5.592;2023-03-20T09:46:09;26.48;;;12.00;;
23988;SDS011;12202;52.136;5.592;2023-03-20T09:48:47;35.03;;;13.13;;
23988;SDS011;12202;52.136;5.592;2023-03-20T09:51:23;31.55;;;12.60;;
23988;SDS011;12202;52.136;5.592;2023-03-20T09:54:27;39.63;;;13.73;;
23988;SDS011;12202;52.136;5.592;2023-03-20T09:56:45;33.60;;;12.80;;
23988;SDS011;12202;52.136;5.592;2023-03-20T09:59:12;32.50;;;14.43;;
23988;SDS011;12202;52.136;5.592;2023-03-20T10:01:56;30.33;;;12.98;;
23988;SDS011;12202;52.136;5.592;2023-03-20T10:04:24;32.53;;;13.25;;
23988;SDS011;12202;52.136;5.592;2023-03-20T10:06:51;28.20;;;12.23;;
23988;SDS011;12202;52.136;5.592;2023-03-20T10:09:21;30.85;;;12.50;;
23988;SDS011;12202;52.136;5.592;2023-03-20T10:19:28;24.35;;;11.35;;
23988;SDS011;12202;52.136;5.592;2023-03-20T10:24:58;26.38;;;10.80;;
23988;SDS011;12202;52.136;5.592;2023-03-20T10:27:38;22.77;;;11.48;;
23988;SDS011;12202;52.136;5.592;2023-03-20T10:40:22;26.70;;;12.18;;
23988;SDS011;12202;52.136;5.592;2023-03-20T10:42:51;28.90;;;10.32;;
23988;SDS011;12202;52.136;5.592;2023-03-20T10:45:25;33.60;;;11.57;;
23988;SDS011;12202;52.136;5.592;2023-03-20T10:47:54;29.00;;;10.93;;
23988;SDS011;12202;52.136;5.592;2023-03-20T10:50:30;30.33;;;10.32;;
23988;SDS011;12202;52.136;5.592;2023-03-20T10:52:57;22.42;;;9.98;;
23988;SDS011;12202;52.136;5.592;2023-03-20T10:55:26;22.52;;;10.60;;
23988;SDS011;12202;52.136;5.592;2023-03-20T11:00:37;21.65;;;10.38;;
23988;SDS011;12202;52.136;5.592;2023-03-20T11:03:04;38.83;;;11.52;;
23988;SDS011;12202;52.136;5.592;2023-03-20T11:05:32;28.95;;;11.32;;
23988;SDS011;12202;52.136;5.592;2023-03-20T11:08:09;28.13;;;11.27;;
23988;SDS011;12202;52.136;5.592;2023-03-20T11:10:36;31.65;;;11.63;;
23988;SDS011;12202;52.136;5.592;2023-03-20T11:13:04;29.60;;;9.90;;
23988;SDS011;12202;52.136;5.592;2023-03-20T11:15:41;32.03;;;12.10;;
23988;SDS011;12202;52.136;5.592;2023-03-20T11:18:08;29.60;;;11.50;;
23988;SDS011;12202;52.136;5.592;2023-03-20T11:20:52;24.33;;;10.13;;
23988;SDS011;12202;52.136;5.592;2023-03-20T11:23:22;24.00;;;9.57;;
23988;SDS011;12202;52.136;5.592;2023-03-20T11:25:55;23.63;;;10.40;;
23988;SDS011;12202;52.136;5.592;2023-03-20T11:30:47;27.23;;;9.30;;
23988;SDS011;12202;52.136;5.592;2023-03-20T11:33:15;26.33;;;8.75;;
23988;SDS011;12202;52.136;5.592;2023-03-20T11:35:45;32.45;;;10.23;;
23988;SDS011;12202;52.136;5.592;2023-03-20T11:38:15;29.08;;;11.25;;
23988;SDS011;12202;52.136;5.592;2023-03-20T11:40:41;32.10;;;12.30;;
23988;SDS011;12202;52.136;5.592;2023-03-20T11:43:12;37.58;;;13.25;;
23988;SDS011;12202;52.136;5.592;2023-03-20T11:45:39;28.02;;;12.80;;
23988;SDS011;12202;52.136;5.592;2023-03-20T11:48:05;38.10;;;14.18;;
23988;SDS011;12202;52.136;5.592;2023-03-20T11:50:32;31.27;;;13.07;;
23988;SDS011;12202;52.136;5.592;2023-03-20T11:53:00;39.90;;;14.70;;
23988;SDS011;12202;52.136;5.592;2023-03-20T11:55:28;33.47;;;14.60;;
23988;SDS011;12202;52.136;5.592;2023-03-20T11:57:58;47.15;;;16.35;;
23988;SDS011;12202;52.136;5.592;2023-03-20T12:00:29;29.08;;;15.73;;
23988;SDS011;12202;52.136;5.592;2023-03-20T12:03:00;48.78;;;18.08;;
23988;SDS011;12202;52.136;5.592;2023-03-20T12:05:35;44.15;;;17.63;;
23988;SDS011;12202;52.136;5.592;2023-03-20T12:08:11;43.95;;;18.10;;
23988;SDS011;12202;52.136;5.592;2023-03-20T12:10:43;44.70;;;17.90;;
23988;SDS011;12202;52.136;5.592;2023-03-20T12:13:44;46.78;;;19.85;;
23988;SDS011;12202;52.136;5.592;2023-03-20T12:16:03;44.58;;;16.92;;
23988;SDS011;12202;52.136;5.592;2023-03-20T12:18:34;41.40;;;17.80;;
23988;SDS011;12202;52.136;5.592;2023-03-20T12:23:50;44.28;;;17.73;;
23988;SDS011;12202;52.136;5.592;2023-03-20T12:26:27;38.35;;;17.98;;
23988;SDS011;12202;52.136;5.592;2023-03-20T12:31:37;52.58;;;20.27;;
23988;SDS011;12202;52.136;5.592;2023-03-20T12:34:15;40.55;;;19.13;;
23988;SDS011;12202;52.136;5.592;2023-03-20T12:36:44;50.45;;;19.15;;
23988;SDS011;12202;52.136;5.592;2023-03-20T12:39:13;49.58;;;19.88;;
23988;SDS011;12202;52.136;5.592;2023-03-20T12:42:01;45.22;;;20.40;;
23988;SDS011;12202;52.136;5.592;2023-03-20T12:44:31;52.90;;;20.95;;
23988;SDS011;12202;52.136;5.592;2023-03-20T12:47:46;54.83;;;21.08;;
23988;SDS011;12202;52.136;5.592;2023-03-20T12:49:53;49.42;;;22.42;;
23988;SDS011;12202;52.136;5.592;2023-03-20T12:52:25;68.20;;;25.63;;
23988;SDS011;12202;52.136;5.592;2023-03-20T12:55:14;51.58;;;23.48;;
23988;SDS011;12202;52.136;5.592;2023-03-20T13:00:14;54.95;;;26.50;;
23988;SDS011;12202;52.136;5.592;2023-03-20T13:05:20;59.58;;;25.58;;
23988;SDS011;12202;52.136;5.592;2023-03-20T13:10:20;53.42;;;26.52;;
23988;SDS011;12202;52.136;5.592;2023-03-20T13:18:07;59.60;;;26.48;;
23988;SDS011;12202;52.136;5.592;2023-03-20T13:20:39;59.05;;;26.25;;
23988;SDS011;12202;52.136;5.592;2023-03-20T13:23:11;54.60;;;26.05;;
23988;SDS011;12202;52.136;5.592;2023-03-20T13:26:13;57.55;;;26.00;;
23988;SDS011;12202;52.136;5.592;2023-03-20T13:28:37;56.05;;;26.90;;
23988;SDS011;12202;52.136;5.592;2023-03-20T13:31:15;71.90;;;26.63;;
23988;SDS011;12202;52.136;5.592;2023-03-20T13:34:04;47.47;;;24.77;;
23988;SDS011;12202;52.136;5.592;2023-03-20T13:39:05;55.83;;;26.60;;
23988;SDS011;12202;52.136;5.592;2023-03-20T13:41:35;57.38;;;24.88;;
23988;SDS011;12202;52.136;5.592;2023-03-20T13:44:02;59.55;;;26.52;;
23988;SDS011;12202;52.136;5.592;2023-03-20T13:48:56;53.92;;;26.00;;
23988;SDS011;12202;52.136;5.592;2023-03-20T14:04:30;64.90;;;26.63;;
23988;SDS011;12202;52.136;5.592;2023-03-20T14:06:57;56.22;;;24.42;;
23988;SDS011;12202;52.136;5.592;2023-03-20T14:11:53;55.05;;;24.85;;
23988;SDS011;12202;52.136;5.592;2023-03-20T14:14:30;63.58;;;26.95;;
23988;SDS011;12202;52.136;5.592;2023-03-20T14:19:42;71.55;;;26.80;;
23988;SDS011;12202;52.136;5.592;2023-03-20T14:22:13;59.45;;;28.10;;
23988;SDS011;12202;52.136;5.592;2023-03-20T14:24:39;67.03;;;28.92;;
23988;SDS011;12202;52.136;5.592;2023-03-20T14:27:15;64.95;;;28.08;;
23988;SDS011;12202;52.136;5.592;2023-03-20T14:29:41;74.53;;;28.40;;
23988;SDS011;12202;52.136;5.592;2023-03-20T14:34:43;66.10;;;27.75;;
23988;SDS011;12202;52.136;5.592;2023-03-20T14:37:32;63.58;;;26.98;;
23988;SDS011;12202;52.136;5.592;2023-03-20T14:43:25;62.83;;;27.35;;
23988;SDS011;12202;52.136;5.592;2023-03-20T14:50:38;61.30;;;27.05;;
23988;SDS011;12202;52.136;5.592;2023-03-20T14:53:19;68.35;;;30.00;;
23988;SDS011;12202;52.136;5.592;2023-03-20T14:55:57;50.38;;;26.67;;
23988;SDS011;12202;52.136;5.592;2023-03-20T14:58:47;66.90;;;27.98;;
23988;SDS011;12202;52.136;5.592;2023-03-20T15:01:23;70.03;;;26.70;;
23988;SDS011;12202;52.136;5.592;2023-03-20T15:04:00;57.75;;;27.42;;
23988;SDS011;12202;52.136;5.592;2023-03-20T15:06:31;59.47;;;27.80;;
23988;SDS011;12202;52.136;5.592;2023-03-20T15:08:59;61.22;;;27.45;;
23988;SDS011;12202;52.136;5.592;2023-03-20T15:11:25;56.92;;;28.20;;
23988;SDS011;12202;52.136;5.592;2023-03-20T15:13:52;54.28;;;28.05;;
23988;SDS011;12202;52.136;5.592;2023-03-20T15:16:26;76.32;;;29.75;;
23988;SDS011;12202;52.136;5.592;2023-03-20T15:18:53;66.60;;;29.08;;
23988;SDS011;12202;52.136;5.592;2023-03-20T15:21:21;62.25;;;28.08;;
23988;SDS011;12202;52.136;5.592;2023-03-20T15:23:52;62.42;;;28.00;;
23988;SDS011;12202;52.136;5.592;2023-03-20T15:26:18;66.05;;;30.83;;
23988;SDS011;12202;52.136;5.592;2023-03-20T15:28:49;61.05;;;29.08;;
23988;SDS011;12202;52.136;5.592;2023-03-20T15:31:20;71.20;;;29.90;;
23988;SDS011;12202;52.136;5.592;2023-03-20T15:33:46;60.15;;;29.52;;
23988;SDS011;12202;52.136;5.592;2023-03-20T15:36:16;66.78;;;29.83;;
23988;SDS011;12202;52.136;5.592;2023-03-20T15:38:43;64.22;;;32.65;;
23988;SDS011;12202;52.136;5.592;2023-03-20T15:41:27;60.47;;;31.10;;
23988;SDS011;12202;52.136;5.592;2023-03-20T15:44:00;59.67;;;28.38;;
23988;SDS011;12202;52.136;5.592;2023-03-20T15:46:27;68.00;;;31.88;;
23988;SDS011;12202;52.136;5.592;2023-03-20T15:48:53;57.25;;;29.17;;
23988;SDS011;12202;52.136;5.592;2023-03-20T15:51:20;53.88;;;28.80;;
23988;SDS011;12202;52.136;5.592;2023-03-20T15:53:49;55.67;;;27.13;;
23988;SDS011;12202;52.136;5.592;2023-03-20T15:56:16;53.30;;;27.55;;
23988;SDS011;12202;52.136;5.592;2023-03-20T15:58:42;73.70;;;30.67;;
23988;SDS011;12202;52.136;5.592;2023-03-20T16:01:10;61.13;;;28.73;;
23988;SDS011;12202;52.136;5.592;2023-03-20T16:03:40;58.75;;;28.33;;
23988;SDS011;12202;52.136;5.592;2023-03-20T16:06:07;68.90;;;28.45;;
23988;SDS011;12202;52.136;5.592;2023-03-20T16:08:34;57.75;;;27.75;;
23988;SDS011;12202;52.136;5.592;2023-03-20T16:11:11;68.65;;;29.40;;
23988;SDS011;12202;52.136;5.592;2023-03-20T16:13:38;59.22;;;31.13;;
23988;SDS011;12202;52.136;5.592;2023-03-20T16:16:07;72.00;;;35.60;;
23988;SDS011;12202;52.136;5.592;2023-03-20T16:18:35;75.47;;;38.28;;
23988;SDS011;12202;52.136;5.592;2023-03-20T16:21:08;66.97;;;33.38;;
23988;SDS011;12202;52.136;5.592;2023-03-20T16:23:38;58.65;;;31.40;;
23988;SDS011;12202;52.136;5.592;2023-03-20T16:26:06;63.30;;;33.08;;